Waterville, Vermont
Current Conditions -  °F | °C
As of 10:54 AM on Thursday 27 Nov 2014 (Local Time) from KMVL Reporting Station
Overcast Overcast  
Wind Chill: -7°   Ceiling: 2500
Heat Index: -3°   Visibility: 10mi
Dew Point: -6°   Wind: 8mph
Humidity: 78%   Direction: 340°NNW
Pressure: 30"   Gusts: NA
Location:  44.69°N, 72.77°W
Report Text: KMVL 271554Z AUTO 34007KT 10SM OVC025 M03/M06 A3000 RMK AO2 SLP168 T10281061 TSNO
Loading
Personal Weather Stations






























Interactive Weather Map New forecast layout! Learn more

10-Day Weather Forecast

Advertisements
Track Severe Weather on mobile